Meyersdale, Pennsylvania
Current Conditions -  °F | °C
As of 6:15 AM on Friday 28 Nov 2014 (Local Time) from K2G9 Reporting Station
Light Snow Light Snow  
Wind Chill:   Ceiling: 400
Heat Index: 21°   Visibility: 1mi
Dew Point: 19°   Wind: 12mph
Humidity: 93%   Direction: 310°NW
Pressure: 30.18"   Gusts: 20mph
Location:  39.81°N, 79.02°W
Report Text: K2G9 281115Z AUTO 31010G17KT 1SM -SN BKN004 OVC010 M06/M07 A3018 RMK AO2
Loading
Personal Weather Stations






























Interactive Weather Map New forecast layout! Learn more

10-Day Weather Forecast

Advertisements
Track Severe Weather on mobile